Terminal Aerodrome Forecast
Issued by NWS New Orleans/Baton Rouge, LA

Home | Current Version | Previous Version | Text Only | Print | Product List | Glossary On
Versions: 1 2 3 4 5 6 7 8 9 10 11 12 13 14
000
FTUS44 KLIX 262332
TAFBTR
TAF
KBTR 262332Z 2700/2724 19003KT P6SM VCSH BKN009 OVC013
     FM270200 18005KT P6SM VCSH SCT009 OVC035
     FM271500 21007KT P6SM SCT025 BKN050=

USA.gov is the U.S. government's official web portal to all federal, state and local government web resources and services.